Time;durP1;ratioP1;P1;durP2;ratioP2;P2;SDS_P1;SDS_P2;PMS_P1;PMS_P2;Temp;Humidity;BMP_temperature;BMP_pressure;BME280_temperature;BME280_humidity;BME280_pressure;Samples;Min_cycle;Max_cycle;Signal;HPM_P1;HPM_P2
2023/07/11 00:00:06;;;;;;;4.70;1.27;;;20.50;99.90;;;;;;5036830;28;20132;-70
2023/07/11 00:03:06;;;;;;;1.60;1.00;;;20.20;99.90;;;;;;5036538;28;20040;-71
2023/07/11 00:05:46;;;;;;;2.50;1.13;;;18.40;99.90;;;;;;5036346;28;20041;-71
2023/07/11 00:08:39;;;;;;;6.57;1.25;;;19.70;99.90;;;;;;5020763;28;20052;-71
2023/07/11 00:11:29;;;;;;;;;;;;;;;;;;;;;
2023/07/11 00:14:36;;;;;;;3.17;1.52;;;19.80;99.90;;;;;;5037096;28;20455;-71
2023/07/11 00:17:34;;;;;;;2.97;1.20;;;19.10;99.90;;;;;;5021023;28;20033;-71
2023/07/11 00:20:29;;;;;;;5.03;1.35;;;19.40;99.90;;;;;;5010686;28;20574;-70
2023/07/11 00:23:32;;;;;;;;;;;;;;;;;;;;;
2023/07/11 00:25:58;;;;;;;;;;;21.10;99.90;;;;;;5037149;28;19924;-71
2023/07/11 00:28:53;;;;;;;5.40;1.80;;;19.60;99.90;;;;;;5052354;28;19916;-71
2023/07/11 00:32:28;;;;;;;5.28;1.55;;;19.50;99.90;;;;;;4966636;28;20447;-70
2023/07/11 00:35:41;;;;;;;4.70;1.30;;;19.50;99.90;;;;;;5009848;28;20412;-71
2023/07/11 00:39:02;;;;;;;4.35;1.20;;;19.80;99.90;;;;;;5021247;28;20552;-70
2023/07/11 00:41:43;;;;;;;3.95;1.15;;;19.60;99.90;;;;;;5020118;28;20087;-72
2023/07/11 00:45:04;;;;;;;4.72;1.50;;;19.70;99.90;;;;;;5036402;28;20466;-70
2023/07/11 00:47:36;;;;;;;3.78;1.67;;;19.50;99.90;;;;;;5022553;28;20432;-71
2023/07/11 00:50:21;;;;;;;3.53;1.30;;;19.70;99.90;;;;;;5018223;28;20424;-72
2023/07/11 00:52:59;;;;;;;6.97;1.70;;;21.40;99.90;;;;;;5036522;28;20041;-71
2023/07/11 00:55:52;;;;;;;4.55;1.20;;;19.70;99.90;;;;;;5020001;28;20040;-71
2023/07/11 00:58:45;;;;;;;;;;;;;;;;;;;;;
2023/07/11 01:01:55;;;;;;;3.80;1.25;;;17.90;99.90;;;;;;5032908;28;20045;-74
2023/07/11 01:04:33;;;;;;;3.40;1.92;;;19.80;99.90;;;;;;4956375;28;20043;-70
2023/07/11 01:07:16;;;;;;;3.78;1.75;;;19.50;99.90;;;;;;4940696;28;20570;-70
2023/07/11 01:10:29;;;;;;;5.72;1.52;;;19.70;99.90;;;;;;4994329;28;20054;-73
2023/07/11 01:16:20;;;;;;;4.07;1.40;;;19.70;99.90;;;;;;4998965;28;20501;-71
2023/07/11 01:19:01;;;;;;;4.97;1.55;;;21.80;99.90;;;;;;5015500;28;20064;-71
2023/07/11 01:21:32;;;;;;;5.32;1.40;;;19.60;99.90;;;;;;5023234;23;20044;-73
2023/07/11 01:23:58;;;;;;;4.35;1.50;;;19.70;99.90;;;;;;5015392;28;20123;-69
2023/07/11 01:26:23;;;;;;;2.10;1.30;;;19.60;99.90;;;;;;5015532;28;20485;-70
2023/07/11 01:28:49;;;;;;;6.15;1.35;;;19.80;99.90;;;;;;5015005;28;20038;-70
2023/07/11 01:31:14;;;;;;;4.82;1.95;;;19.50;99.90;;;;;;5014628;28;20123;-72
2023/07/11 01:33:40;;;;;;;3.97;1.60;;;19.50;99.90;;;;;;4998468;28;20044;-69
2023/07/11 01:36:06;;;;;;;3.35;1.83;;;19.70;99.90;;;;;;5015092;28;20041;-69
2023/07/11 01:38:32;;;;;;;6.60;1.77;;;19.50;99.90;;;;;;5015053;28;20053;-69
2023/07/11 01:40:58;;;;;;;3.90;1.52;;;20.60;99.90;;;;;;4997343;28;20038;-70
2023/07/11 01:43:23;;;;;;;5.43;1.50;;;19.60;99.90;;;;;;5014705;28;20041;-69
2023/07/11 01:45:49;;;;;;;5.45;1.55;;;19.50;99.90;;;;;;5014655;28;20086;-69
2023/07/11 01:48:14;;;;;;;5.47;1.40;;;19.50;99.90;;;;;;5015160;28;20051;-70
2023/07/11 01:50:40;;;;;;;4.53;1.48;;;19.50;99.90;;;;;;5014387;28;20497;-70
2023/07/11 01:53:06;;;;;;;3.17;1.40;;;19.90;99.90;;;;;;5014786;28;20056;-70
2023/07/11 01:55:31;;;;;;;3.28;1.42;;;19.60;99.90;;;;;;5014744;28;20042;-73
2023/07/11 01:57:57;;;;;;;5.68;1.48;;;19.20;99.90;;;;;;5014681;28;20064;-69
2023/07/11 02:00:23;;;;;;;3.47;1.67;;;19.40;99.90;;;;;;4997436;28;20037;-69
2023/07/11 02:02:48;;;;;;;6.68;1.70;;;20.30;99.90;;;;;;5014311;28;20037;-70
2023/07/11 02:05:14;;;;;;;3.53;1.38;;;19.50;99.90;;;;;;4998078;28;20516;-72
2023/07/11 02:07:41;;;;;;;3.53;1.55;;;19.50;99.90;;;;;;5032243;28;20037;-69
2023/07/11 02:10:07;;;;;;;3.63;1.40;;;20.20;99.90;;;;;;5013807;28;20048;-70
2023/07/11 02:12:33;;;;;;;3.90;1.63;;;19.30;99.90;;;;;;5031815;28;20504;-69
2023/07/11 02:14:59;;;;;;;2.60;1.70;;;19.50;99.90;;;;;;5014236;28;20039;-71
2023/07/11 02:17:25;;;;;;;4.78;1.70;;;19.50;99.90;;;;;;5014288;28;20493;-73
2023/07/11 02:19:51;;;;;;;4.93;1.80;;;19.30;99.90;;;;;;5013780;28;20037;-73
2023/07/11 02:22:17;;;;;;;7.25;2.05;;;19.30;99.90;;;;;;5014093;28;20038;-73
2023/07/11 02:24:42;;;;;;;9.05;2.17;;;19.30;99.90;;;;;;5014287;28;20048;-69
2023/07/11 02:27:09;;;;;;;4.13;1.60;;;20.80;99.90;;;;;;5014337;28;20159;-69
2023/07/11 02:29:34;;;;;;;4.88;1.75;;;19.30;99.90;;;;;;5031105;28;20041;-71
2023/07/11 02:32:00;;;;;;;6.38;1.52;;;19.40;99.90;;;;;;5013818;28;20048;-70
2023/07/11 02:34:26;;;;;;;9.35;1.75;;;19.90;99.90;;;;;;5013814;28;20041;-70
2023/07/11 02:36:51;;;;;;;3.50;1.48;;;19.60;99.90;;;;;;5013906;28;20042;-74
2023/07/11 02:39:17;;;;;;;3.85;1.30;;;19.70;99.90;;;;;;5031706;28;20034;-69
2023/07/11 02:41:43;;;;;;;5.90;1.60;;;19.40;99.90;;;;;;5013746;28;20136;-69
2023/07/11 02:44:09;;;;;;;5.60;1.55;;;20.50;99.90;;;;;;5014267;28;20036;-69
2023/07/11 02:46:35;;;;;;;4.80;1.42;;;19.90;99.90;;;;;;5033001;28;20044;-70
2023/07/11 02:49:01;;;;;;;7.68;1.85;;;19.40;99.90;;;;;;5015131;28;20038;-70
2023/07/11 02:51:27;;;;;;;6.03;1.77;;;19.40;99.90;;;;;;5013940;28;20523;-70
2023/07/11 02:53:53;;;;;;;5.88;2.38;;;19.30;99.90;;;;;;5017755;28;20033;-71
2023/07/11 02:56:19;;;;;;;4.38;1.90;;;19.20;99.90;;;;;;5017909;28;20102;-69
2023/07/11 02:58:46;;;;;;;3.65;1.13;;;19.40;99.90;;;;;;5017952;28;20428;-74
2023/07/11 03:01:13;;;;;;;4.20;1.77;;;19.10;99.90;;;;;;5034880;28;20049;-69
2023/07/11 03:03:39;;;;;;;4.60;1.88;;;20.20;99.90;;;;;;5017859;28;20048;-73
2023/07/11 03:06:05;;;;;;;5.50;2.15;;;19.00;99.90;;;;;;5017870;28;20033;-69
2023/07/11 03:08:32;;;;;;;6.60;1.77;;;19.10;99.90;;;;;;5017643;28;20037;-68
2023/07/11 03:10:59;;;;;;;4.50;1.95;;;20.30;99.90;;;;;;5016917;28;20169;-71
2023/07/11 03:13:25;;;;;;;5.50;1.75;;;19.00;99.90;;;;;;5017803;28;20505;-69
2023/07/11 03:15:51;;;;;;;7.47;2.03;;;18.90;99.90;;;;;;5017727;28;20045;-69
2023/07/11 03:18:17;;;;;;;4.32;2.00;;;18.90;99.90;;;;;;5017395;28;20037;-70
2023/07/11 03:20:42;;;;;;;4.80;1.63;;;18.80;99.90;;;;;;5016884;28;20124;-70
2023/07/11 03:23:10;;;;;;;4.70;1.88;;;18.90;99.90;;;;;;5017289;28;20041;-69
2023/07/11 03:25:36;;;;;;;4.80;2.10;;;20.50;99.90;;;;;;5017626;28;20107;-70
2023/07/11 03:28:02;;;;;;;9.25;2.30;;;18.90;99.90;;;;;;5017306;28;20049;-70
2023/07/11 03:30:29;;;;;;;8.55;2.42;;;19.10;99.90;;;;;;5016599;28;20045;-70
2023/07/11 03:32:55;;;;;;;3.97;2.65;;;19.50;99.90;;;;;;5017135;28;20046;-70
2023/07/11 03:35:20;;;;;;;6.97;3.30;;;19.00;99.90;;;;;;5017441;28;20405;-73
2023/07/11 03:37:46;;;;;;;5.63;2.42;;;20.10;99.90;;;;;;5017192;28;20046;-69
2023/07/11 03:40:12;;;;;;;7.15;2.83;;;18.90;99.90;;;;;;5017377;28;20041;-70
2023/07/11 03:42:37;;;;;;;8.57;3.15;;;19.10;99.90;;;;;;5017668;28;20041;-70
2023/07/11 03:45:03;;;;;;;7.97;2.60;;;20.30;99.90;;;;;;5017352;28;20042;-73
2023/07/11 03:47:29;;;;;;;5.97;2.80;;;18.90;99.90;;;;;;5034612;28;20041;-73
2023/07/11 03:49:54;;;;;;;10.68;3.25;;;18.80;99.90;;;;;;5016401;28;20095;-69
2023/07/11 03:52:20;;;;;;;7.20;2.63;;;18.90;99.90;;;;;;5016739;28;20520;-70
2023/07/11 03:54:46;;;;;;;6.35;2.58;;;18.90;99.90;;;;;;5017051;28;20041;-70
2023/07/11 03:57:11;;;;;;;5.30;2.70;;;18.60;99.90;;;;;;5016663;28;20037;-69
2023/07/11 03:59:37;;;;;;;4.90;2.88;;;18.80;99.90;;;;;;5016456;28;20117;-69
2023/07/11 04:02:02;;;;;;;5.25;2.55;;;18.70;99.90;;;;;;5000099;28;20489;-69
2023/07/11 04:04:28;;;;;;;5.20;2.63;;;18.80;99.90;;;;;;5016094;28;20037;-70
2023/07/11 04:06:54;;;;;;;7.68;2.88;;;18.90;99.90;;;;;;5016619;28;20046;-69
2023/07/11 04:09:19;;;;;;;8.27;2.63;;;18.70;99.90;;;;;;5016387;28;20037;-68
2023/07/11 04:11:45;;;;;;;10.30;3.42;;;18.70;99.90;;;;;;5016588;28;20073;-70
2023/07/11 04:14:11;;;;;;;6.18;2.80;;;18.70;99.90;;;;;;5000505;28;20531;-70
2023/07/11 04:16:37;;;;;;;7.85;3.30;;;18.80;99.90;;;;;;5034308;28;20219;-71
2023/07/11 04:19:02;;;;;;;5.82;3.10;;;18.70;99.90;;;;;;5034233;28;20121;-69
2023/07/11 04:21:28;;;;;;;6.45;2.97;;;18.80;99.90;;;;;;5033320;28;20114;-69
2023/07/11 04:23:54;;;;;;;5.65;2.60;;;18.60;99.90;;;;;;5016532;28;20188;-69
2023/07/11 04:26:19;;;;;;;5.70;3.30;;;18.70;99.90;;;;;;5016091;28;20124;-70
2023/07/11 04:28:45;;;;;;;9.55;3.60;;;18.60;99.90;;;;;;5016162;28;20065;-70
2023/07/11 04:31:11;;;;;;;9.68;3.30;;;18.70;99.90;;;;;;5015711;28;20095;-69
2023/07/11 04:33:36;;;;;;;7.63;3.38;;;18.70;99.90;;;;;;4999825;28;20037;-67
2023/07/11 04:36:14;;;;;;;4.88;2.80;;;18.80;99.90;;;;;;5014868;28;20038;-69
2023/07/11 04:38:40;;;;;;;9.95;3.97;;;18.80;99.90;;;;;;5015960;28;20124;-70
2023/07/11 04:41:06;;;;;;;5.90;3.10;;;18.80;99.90;;;;;;5015466;28;20496;-69
2023/07/11 04:43:35;;;;;;;5.50;3.00;;;18.80;99.90;;;;;;5033713;28;20441;-69
2023/07/11 04:46:03;;;;;;;8.95;4.10;;;18.70;99.90;;;;;;5015604;28;20045;-69
2023/07/11 04:48:30;;;;;;;10.18;3.45;;;18.70;99.90;;;;;;5016112;28;20475;-69
2023/07/11 04:51:00;;;;;;;7.70;3.63;;;18.70;99.90;;;;;;5014995;28;20042;-69
2023/07/11 04:53:27;;;;;;;5.60;3.42;;;18.80;99.90;;;;;;5033689;28;20100;-69
2023/07/11 04:56:01;;;;;;;9.15;4.05;;;18.70;99.90;;;;;;5015611;28;20077;-72
2023/07/11 04:58:30;;;;;;;11.93;3.78;;;18.90;99.90;;;;;;5033233;28;20079;-72
2023/07/11 05:01:13;;;;;;;5.78;3.60;;;18.90;99.90;;;;;;5015142;28;20069;-68
2023/07/11 05:03:40;;;;;;;5.97;3.47;;;18.80;99.90;;;;;;5032343;28;20041;-70
2023/07/11 05:06:06;;;;;;;10.35;4.18;;;19.00;99.90;;;;;;5015389;28;20096;-69
2023/07/11 05:08:32;;;;;;;10.63;5.10;;;19.10;99.90;;;;;;5033184;28;20132;-69
2023/07/11 05:11:01;;;;;;;10.00;3.95;;;19.10;99.90;;;;;;5014948;28;20073;-69
2023/07/11 05:13:28;;;;;;;6.88;4.15;;;19.30;99.90;;;;;;5015307;28;20037;-73
2023/07/11 05:16:05;;;;;;;6.10;4.15;;;20.10;99.90;;;;;;5032407;28;20533;-69
2023/07/11 05:18:31;;;;;;;10.93;5.35;;;19.50;99.90;;;;;;5015034;28;20088;-69
2023/07/11 05:20:58;;;;;;;8.30;4.60;;;19.40;99.90;;;;;;5014732;28;20034;-70
2023/07/11 05:23:26;;;;;;;6.72;4.03;;;19.70;99.90;;;;;;5015170;28;20072;-70
2023/07/11 05:25:52;;;;;;;12.35;3.97;;;19.60;99.90;;;;;;5032751;28;20037;-70
2023/07/11 05:28:18;;;;;;;6.00;3.92;;;20.30;99.90;;;;;;5015260;28;20132;-69
2023/07/11 05:30:44;;;;;;;7.15;4.25;;;19.80;99.90;;;;;;5032262;28;20072;-69
2023/07/11 05:33:10;;;;;;;5.90;3.50;;;19.90;99.90;;;;;;5015067;28;20462;-69
2023/07/11 05:35:37;;;;;;;6.13;4.00;;;19.90;99.90;;;;;;5014457;28;20413;-68
2023/07/11 05:38:03;;;;;;;9.52;4.53;;;19.90;99.90;;;;;;5014780;28;20486;-70
2023/07/11 05:40:32;;;;;;;10.70;5.13;;;20.10;99.90;;;;;;5014247;28;20120;-70
2023/07/11 05:42:58;;;;;;;7.40;3.88;;;20.10;99.90;;;;;;5014708;28;20120;-69
2023/07/11 05:45:24;;;;;;;7.57;4.28;;;20.20;99.90;;;;;;5014668;28;20175;-70
2023/07/11 05:47:49;;;;;;;8.70;4.22;;;20.30;99.90;;;;;;5014719;28;20041;-70
2023/07/11 05:50:15;;;;;;;8.95;4.47;;;20.20;99.90;;;;;;5013726;28;20037;-73
2023/07/11 05:52:40;;;;;;;9.10;4.32;;;20.20;99.90;;;;;;5014713;28;20037;-70
2023/07/11 05:55:06;;;;;;;8.75;4.78;;;20.20;99.90;;;;;;5014859;28;20570;-70
2023/07/11 05:57:32;;;;;;;6.10;3.70;;;20.30;99.90;;;;;;5030935;28;20042;-69
2023/07/11 05:59:58;;;;;;;9.18;4.35;;;20.40;99.90;;;;;;5013916;28;20044;-70
2023/07/11 06:02:23;;;;;;;7.28;4.53;;;20.40;99.90;;;;;;5032508;28;20514;-73
2023/07/11 06:04:49;;;;;;;8.32;4.50;;;20.30;99.90;;;;;;5014271;28;20038;-69
2023/07/11 06:07:15;;;;;;;9.52;4.47;;;20.30;99.90;;;;;;5014432;28;20041;-70
2023/07/11 06:09:40;;;;;;;6.60;4.05;;;20.60;99.90;;;;;;4997542;28;20072;-69
2023/07/11 06:12:06;;;;;;;7.70;4.20;;;20.60;99.90;;;;;;4997711;28;20064;-74
2023/07/11 06:14:32;;;;;;;11.43;4.47;;;20.60;99.90;;;;;;5014449;28;20592;-69
2023/07/11 06:16:57;;;;;;;8.98;4.28;;;20.80;99.90;;;;;;5014274;28;20084;-69
2023/07/11 06:19:23;;;;;;;7.93;4.72;;;20.90;99.90;;;;;;5013628;28;20121;-70
2023/07/11 06:21:48;;;;;;;7.38;4.20;;;21.00;99.90;;;;;;5013906;28;20041;-71
2023/07/11 06:24:14;;;;;;;9.70;5.00;;;21.30;99.90;;;;;;5014365;28;20386;-69
2023/07/11 06:26:40;;;;;;;9.23;4.78;;;21.40;99.90;;;;;;5031897;28;20043;-69
2023/07/11 06:29:06;;;;;;;11.27;4.53;;;21.70;99.90;;;;;;5031467;28;20090;-69
2023/07/11 06:31:31;;;;;;;11.27;5.57;;;21.70;99.90;;;;;;5013785;28;20037;-70
2023/07/11 06:33:57;;;;;;;8.50;5.47;;;22.10;99.90;;;;;;5031750;28;20042;-73
2023/07/11 06:36:23;;;;;;;8.45;4.63;;;22.00;99.90;;;;;;5013991;28;20042;-69
2023/07/11 06:38:50;;;;;;;8.80;4.65;;;21.90;99.90;;;;;;4994193;28;20339;-70
2023/07/11 06:41:16;;;;;;;8.55;4.50;;;22.10;99.90;;;;;;5009969;28;20461;-69
2023/07/11 06:43:41;;;;;;;9.18;3.75;;;22.10;99.90;;;;;;4994275;28;20046;-69
2023/07/11 06:46:09;;;;;;;9.85;4.50;;;22.20;99.90;;;;;;5010805;28;20034;-70
2023/07/11 06:48:34;;;;;;;9.13;3.78;;;22.10;99.90;;;;;;4994136;28;20056;-70
2023/07/11 06:51:02;;;;;;;5.93;4.30;;;23.20;99.90;;;;;;4993448;28;20030;-73
2023/07/11 06:53:30;;;;;;;6.90;4.28;;;22.20;99.90;;;;;;4994499;28;20603;-69
2023/07/11 06:55:56;;;;;;;11.55;4.72;;;22.60;99.90;;;;;;4994025;28;20585;-69
2023/07/11 06:58:22;;;;;;;8.77;3.80;;;22.60;99.90;;;;;;4994072;28;20133;-69
2023/07/11 07:01:02;;;;;;;7.88;4.20;;;22.60;99.90;;;;;;5009775;28;20117;-70
2023/07/11 07:03:28;;;;;;;11.27;4.80;;;22.70;99.90;;;;;;4994374;28;20038;-69
2023/07/11 07:05:56;;;;;;;8.60;4.25;;;22.70;99.90;;;;;;4994129;28;20038;-70
2023/07/11 07:08:24;;;;;;;8.90;4.30;;;23.40;99.90;;;;;;4994330;28;20048;-73
2023/07/11 07:10:50;;;;;;;11.50;4.13;;;22.60;99.90;;;;;;4993372;28;20125;-70
2023/07/11 07:13:18;;;;;;;9.73;4.88;;;22.50;99.90;;;;;;4994422;28;20042;-70
2023/07/11 07:15:52;;;;;;;7.50;4.05;;;23.50;99.90;;;;;;4994128;28;20041;-70
2023/07/11 07:18:18;;;;;;;7.28;4.13;;;22.60;99.90;;;;;;4995043;28;20042;-70
2023/07/11 07:20:48;;;;;;;7.68;4.38;;;22.60;99.90;;;;;;4993651;28;20112;-70
2023/07/11 07:27:09;;;;;;;7.47;4.40;;;22.80;99.90;;;;;;5004148;28;20057;-71
2023/07/11 07:30:00;;;;;;;;;;;;;;;;;;;;;
2023/07/11 07:32:32;;;;;;;10.52;4.35;;;22.90;99.90;;;;;;4995564;28;20077;-72
2023/07/11 07:35:53;;;;;;;10.05;4.13;;;22.90;99.90;;;;;;4994764;28;20097;-72
2023/07/11 07:39:00;;;;;;;7.30;4.15;;;23.00;99.90;;;;;;4930004;29;20107;-71
2023/07/11 07:41:37;;;;;;;8.18;4.07;;;23.20;99.90;;;;;;4919394;28;20057;-74
2023/07/11 07:44:25;;;;;;;12.00;4.38;;;23.60;99.90;;;;;;4979634;28;20035;-70
2023/07/11 07:50:20;;;;;;;;;;;;;;;;;;;;;
2023/07/11 07:53:11;;;;;;;7.70;3.92;;;23.50;99.90;;;;;;5010377;28;20050;-74
2023/07/11 07:56:05;;;;;;;7.53;3.22;;;24.50;99.90;;;;;;4998478;28;20044;-72
2023/07/11 07:59:13;;;;;;;5.78;3.72;;;24.30;99.90;;;;;;5013695;28;20057;-72
2023/07/11 08:02:35;;;;;;;;;;;;;;;;;;;;;
2023/07/11 08:05:47;;;;;;;7.00;3.72;;;23.60;99.90;;;;;;4997707;28;20338;-75
2023/07/11 08:11:55;;;;;;;10.18;3.75;;;24.30;99.90;;;;;;4995552;28;20046;-71
2023/07/11 08:14:36;;;;;;;9.07;3.78;;;24.30;99.90;;;;;;4962415;28;20085;-71
2023/07/11 08:17:20;;;;;;;5.55;2.72;;;24.60;99.90;;;;;;4998095;28;20033;-71
2023/07/11 08:20:49;;;;;;;;;;;;;;;;;;;;;
2023/07/11 08:23:46;;;;;;;;;;;;;;;;;;;;;
2023/07/11 08:26:27;;;;;;;5.65;3.00;;;24.40;99.90;;;;;;4997497;28;20092;-74
2023/07/11 08:29:45;;;;;;;5.68;3.10;;;24.20;99.90;;;;;;4934920;29;20048;-74
2023/07/11 08:32:54;;;;;;;6.95;3.15;;;24.50;99.90;;;;;;4920059;29;20044;-74
2023/07/11 08:35:58;;;;;;;8.02;3.22;;;22.40;99.90;;;;;;4919373;29;20315;-74
2023/07/11 08:46:32;;;;;;;;;;;;;;;;;;;;;
2023/07/11 08:50:40;;;;;;;;;;;;;;;;;;;;;
2023/07/11 08:53:33;;;;;;;;;;;;;;;;;;;;;
2023/07/11 08:57:14;;;;;;;6.18;2.20;;;26.30;99.90;;;;;;4948111;28;20045;-72
2023/07/11 09:00:39;;;;;;;7.60;2.42;;;25.50;99.90;;;;;;4937169;28;20058;-74
2023/07/11 09:04:15;;;;;;;7.43;2.85;;;25.90;99.90;;;;;;4914098;28;20054;-72
2023/07/11 09:10:48;;;;;;;4.50;2.13;;;26.30;99.90;;;;;;4936534;29;20051;-72
2023/07/11 09:14:13;;;;;;;9.90;2.63;;;25.90;99.90;;;;;;4996658;28;20498;-72
2023/07/11 09:17:22;;;;;;;8.07;2.53;;;25.80;99.90;;;;;;4996687;28;20096;-72
2023/07/11 09:19:52;;;;;;;7.22;2.90;;;26.30;99.90;;;;;;4995781;28;20125;-72
2023/07/11 09:22:32;;;;;;;11.05;3.13;;;26.20;99.90;;;;;;4996084;28;20049;-73
2023/07/11 09:25:16;;;;;;;8.63;2.42;;;26.20;99.90;;;;;;4995287;28;20061;-73
2023/07/11 09:28:10;;;;;;;9.05;2.70;;;26.70;99.90;;;;;;4995917;28;20084;-72
2023/07/11 09:41:37;;;;;;;6.53;2.40;;;26.80;99.90;;;;;;4869371;29;20056;-71
2023/07/11 09:44:49;;;;;;;;;;;;;;;;;;;;;
2023/07/11 09:48:27;;;;;;;;;;;;;;;;;;;;;
2023/07/11 09:55:37;;;;;;;7.18;2.38;;;27.50;99.90;;;;;;4861092;29;20045;-73
2023/07/11 10:02:52;;;;;;;7.20;2.40;;;25.70;99.10;;;;;;4859477;29;20061;-73
2023/07/11 10:16:37;;;;;;;5.75;2.13;;;27.10;99.90;;;;;;4878418;29;20056;-72
2023/07/11 10:19:55;;;;;;;5.97;2.60;;;27.10;99.90;;;;;;4868383;29;20045;-73
2023/07/11 10:22:29;;;;;;;5.68;2.22;;;26.50;99.30;;;;;;4919585;29;20051;-73
2023/07/11 10:25:32;;;;;;;;;;;;;;;;;;;;;
2023/07/11 10:29:07;;;;;;;;;;;;;;;;;;;;;
2023/07/11 10:32:29;;;;;;;8.50;2.65;;;25.20;99.30;;;;;;4994118;28;20049;-73
2023/07/11 10:35:45;;;;;;;9.93;2.53;;;27.00;99.60;;;;;;4994681;28;20085;-73
2023/07/11 10:39:14;;;;;;;6.70;2.40;;;26.20;99.30;;;;;;4987382;28;20184;-72
2023/07/11 10:45:50;;;;;;;7.80;3.22;;;27.50;99.90;;;;;;4876029;29;20045;-72
2023/07/11 10:49:09;;;;;;;8.05;2.40;;;26.70;99.90;;;;;;4990452;28;20052;-73
2023/07/11 10:52:22;;;;;;;;;;;;;;;;;;;;;
2023/07/11 10:55:44;;;;;;;8.43;3.25;;;27.10;99.90;;;;;;4995304;28;20301;-72
2023/07/11 11:04:36;;;;;;;7.13;3.10;;;27.00;99.80;;;;;;4979171;23;20055;-73
2023/07/11 11:07:34;;;;;;;9.40;3.28;;;27.50;99.90;;;;;;4896364;28;20475;-72
2023/07/11 11:10:55;;;;;;;8.23;2.47;;;27.70;99.90;;;;;;4956009;28;20086;-73
2023/07/11 11:14:02;;;;;;;8.02;2.95;;;27.90;99.40;;;;;;4956457;28;20047;-73
2023/07/11 11:16:56;;;;;;;9.95;3.05;;;27.70;99.70;;;;;;4960019;28;20051;-73
2023/07/11 11:19:57;;;;;;;8.20;3.83;;;27.30;99.40;;;;;;4999846;23;20047;-68
2023/07/11 11:22:35;;;;;;;11.35;4.03;;;27.90;99.30;;;;;;4975315;28;20126;-71
2023/07/11 11:25:04;;;;;;;13.05;3.80;;;27.70;99.90;;;;;;4976559;28;20081;-71
2023/07/11 11:27:43;;;;;;;10.63;3.90;;;27.80;99.40;;;;;;4976572;28;20093;-71
2023/07/11 11:30:21;;;;;;;8.07;3.40;;;27.80;99.70;;;;;;4958359;28;20043;-71
2023/07/11 11:32:58;;;;;;;8.38;3.22;;;27.90;98.90;;;;;;4958876;28;20134;-71
2023/07/11 11:35:30;;;;;;;11.48;2.90;;;27.90;99.00;;;;;;4959012;28;20458;-71
2023/07/11 11:38:29;;;;;;;14.35;3.17;;;28.00;98.70;;;;;;4958696;28;20042;-72
2023/07/11 11:40:59;;;;;;;9.90;3.35;;;27.90;98.50;;;;;;4958366;28;20058;-71
2023/07/11 11:43:26;;;;;;;7.88;3.30;;;27.60;99.20;;;;;;4959017;28;20050;-71
2023/07/11 11:45:53;;;;;;;10.95;3.25;;;27.90;98.70;;;;;;4958987;28;20043;-71
2023/07/11 11:48:25;;;;;;;6.18;3.22;;;27.90;99.00;;;;;;4975773;28;20053;-71
2023/07/11 11:50:52;;;;;;;6.03;2.67;;;27.80;99.30;;;;;;4958088;28;20046;-71
2023/07/11 11:53:46;;;;;;;8.40;3.53;;;28.00;99.60;;;;;;4958672;28;20388;-71
2023/07/11 11:56:19;;;;;;;9.35;3.65;;;27.90;98.70;;;;;;4958545;28;20061;-71
2023/07/11 11:58:57;;;;;;;9.15;3.85;;;27.50;99.00;;;;;;4958318;28;20086;-71
2023/07/11 12:01:42;;;;;;;10.88;3.15;;;27.90;99.50;;;;;;4957646;28;20049;-71
2023/07/11 12:04:32;;;;;;;5.88;2.90;;;27.90;99.20;;;;;;4958235;28;20121;-69
2023/07/11 12:07:03;;;;;;;5.78;3.25;;;27.80;99.30;;;;;;4923209;28;20399;-71
2023/07/11 12:09:44;;;;;;;6.03;2.63;;;27.60;99.30;;;;;;4957757;28;20043;-71
2023/07/11 12:12:18;;;;;;;9.23;2.65;;;27.60;99.30;;;;;;4958435;28;20106;-71
2023/07/11 12:14:58;;;;;;;6.07;2.65;;;27.60;99.50;;;;;;4958263;28;20035;-71
2023/07/11 12:17:32;;;;;;;9.05;2.25;;;27.70;99.30;;;;;;4957986;28;20109;-71
2023/07/11 12:20:01;;;;;;;4.43;2.30;;;28.10;98.80;;;;;;4957568;28;20384;-71
2023/07/11 12:22:36;;;;;;;5.65;2.72;;;28.20;98.90;;;;;;4957879;28;20043;-71
2023/07/11 12:25:05;;;;;;;6.90;2.53;;;27.90;98.30;;;;;;4957622;28;20046;-70
2023/07/11 12:27:30;;;;;;;7.47;3.00;;;27.90;98.00;;;;;;4960237;28;20438;-71
2023/07/11 12:29:57;;;;;;;5.32;2.47;;;27.70;98.30;;;;;;4975987;28;20050;-72
2023/07/11 12:32:32;;;;;;;4.43;2.78;;;28.00;98.60;;;;;;4959078;28;20399;-71
2023/07/11 12:35:04;;;;;;;5.18;2.00;;;28.20;98.30;;;;;;4959212;28;20046;-71
2023/07/11 12:37:40;;;;;;;6.35;2.50;;;28.00;98.20;;;;;;4976280;28;20039;-71
2023/07/11 12:40:27;;;;;;;7.18;2.80;;;28.20;98.00;;;;;;4958499;28;20093;-71
2023/07/11 12:42:55;;;;;;;8.10;2.42;;;28.30;98.10;;;;;;4958824;28;20046;-71
2023/07/11 12:45:27;;;;;;;5.07;2.08;;;28.40;98.40;;;;;;4958455;28;20053;-72
2023/07/11 12:48:10;;;;;;;3.50;1.90;;;28.50;97.80;;;;;;4958692;28;20035;-71
2023/07/11 12:50:54;;;;;;;7.93;2.22;;;28.60;98.30;;;;;;4958122;28;20047;-71
2023/07/11 12:53:19;;;;;;;3.28;1.90;;;28.80;98.60;;;;;;4958438;28;20410;-71
2023/07/11 12:55:48;;;;;;;7.85;2.00;;;28.90;98.30;;;;;;4958846;28;20042;-71
2023/07/11 12:58:19;;;;;;;4.80;1.95;;;28.40;97.90;;;;;;4957973;28;20042;-71
2023/07/11 13:00:45;;;;;;;6.13;1.80;;;28.90;97.90;;;;;;4957576;28;20058;-71
2023/07/11 13:03:24;;;;;;;6.63;1.92;;;29.10;98.20;;;;;;4958750;28;20505;-71
2023/07/11 13:05:53;;;;;;;5.13;2.13;;;28.80;98.00;;;;;;4958408;28;20553;-70
2023/07/11 13:08:19;;;;;;;8.60;2.33;;;28.90;97.90;;;;;;4958012;28;20081;-71
2023/07/11 13:10:54;;;;;;;6.60;2.17;;;29.10;97.90;;;;;;4957409;28;20454;-71
2023/07/11 13:13:21;;;;;;;6.38;1.90;;;28.70;98.30;;;;;;4958317;28;20507;-72
2023/07/11 13:15:47;;;;;;;8.32;2.20;;;28.50;98.40;;;;;;4957955;28;20039;-71
2023/07/11 13:18:29;;;;;;;7.43;2.08;;;28.90;98.30;;;;;;4958781;28;20039;-71
2023/07/11 13:20:56;;;;;;;7.10;2.05;;;28.80;97.90;;;;;;4957316;28;20053;-71
2023/07/11 13:23:22;;;;;;;4.32;1.70;;;28.60;98.40;;;;;;4958118;28;20035;-71
2023/07/11 13:25:48;;;;;;;5.97;1.40;;;28.50;98.80;;;;;;4957971;28;20085;-71
2023/07/11 13:28:19;;;;;;;5.35;1.10;;;28.50;99.80;;;;;;4958259;28;20043;-71
2023/07/11 13:30:44;;;;;;;3.15;1.60;;;28.60;99.90;;;;;;4973412;28;20115;-71
2023/07/11 13:33:16;;;;;;;6.75;1.75;;;28.30;99.90;;;;;;4958171;28;20042;-71
2023/07/11 13:36:00;;;;;;;5.63;1.58;;;28.50;99.90;;;;;;4957333;28;20093;-74
2023/07/11 13:38:41;;;;;;;4.57;1.52;;;29.00;99.90;;;;;;4957006;28;20121;-71
2023/07/11 13:41:15;;;;;;;4.25;1.15;;;28.40;99.90;;;;;;4957683;28;20102;-72
2023/07/11 13:43:42;;;;;;;3.33;1.40;;;28.30;99.90;;;;;;4942826;28;20402;-72
2023/07/11 13:46:11;;;;;;;5.20;1.10;;;28.20;99.90;;;;;;4958389;28;20049;-72
2023/07/11 13:48:41;;;;;;;5.38;1.15;;;27.80;99.90;;;;;;4958512;28;20039;-71
2023/07/11 13:51:17;;;;;;;2.75;1.23;;;27.80;99.90;;;;;;4957763;28;20129;-71
2023/07/11 13:53:49;;;;;;;12.60;1.70;;;27.60;99.90;;;;;;4957487;28;20102;-70
2023/07/11 13:56:16;;;;;;;1.52;0.82;;;27.60;99.90;;;;;;4956932;28;20038;-71
2023/07/11 13:58:43;;;;;;;7.82;1.60;;;27.10;99.90;;;;;;4957663;28;20039;-71
2023/07/11 14:01:13;;;;;;;12.32;3.17;;;27.30;99.90;;;;;;4956829;28;20092;-72
2023/07/11 14:03:39;;;;;;;7.78;1.40;;;27.50;99.90;;;;;;4957365;28;20422;-71
2023/07/11 14:06:04;;;;;;;4.88;1.70;;;27.70;99.90;;;;;;4957300;28;20038;-71
2023/07/11 14:08:30;;;;;;;4.95;1.60;;;27.40;99.90;;;;;;4974604;28;20074;-71
2023/07/11 14:10:55;;;;;;;5.45;1.98;;;27.60;99.90;;;;;;4956697;28;20042;-71
2023/07/11 14:13:26;;;;;;;11.43;1.70;;;27.50;99.90;;;;;;4957340;28;20418;-71
2023/07/11 14:15:53;;;;;;;4.30;1.90;;;27.40;99.90;;;;;;4957042;28;20046;-71
2023/07/11 14:18:19;;;;;;;3.97;2.03;;;27.20;99.90;;;;;;4956143;28;20403;-73
2023/07/11 14:20:45;;;;;;;8.65;2.08;;;26.90;99.90;;;;;;4955126;28;20041;-71
2023/07/11 14:23:26;;;;;;;6.28;1.60;;;26.80;99.90;;;;;;4955778;28;20097;-71
2023/07/11 14:25:52;;;;;;;5.30;1.67;;;26.80;99.90;;;;;;4955735;28;20121;-71
2023/07/11 14:28:18;;;;;;;2.42;1.40;;;26.80;99.90;;;;;;4955792;28;20046;-71
2023/07/11 14:30:44;;;;;;;2.40;1.58;;;26.90;99.90;;;;;;4955118;28;20049;-71
2023/07/11 14:33:12;;;;;;;4.70;2.22;;;26.60;99.90;;;;;;4955603;28;20085;-70
2023/07/11 14:35:38;;;;;;;4.10;1.58;;;26.50;99.90;;;;;;4955715;28;20158;-70
2023/07/11 14:38:09;;;;;;;5.45;1.60;;;26.50;99.90;;;;;;4955465;28;20107;-70
2023/07/11 14:40:34;;;;;;;8.05;1.88;;;27.00;99.90;;;;;;4955004;28;20038;-70
2023/07/11 14:43:00;;;;;;;3.85;2.03;;;26.70;99.90;;;;;;4955614;28;20066;-70
2023/07/11 14:45:27;;;;;;;6.95;1.95;;;26.50;99.90;;;;;;4955454;28;20066;-70
2023/07/11 14:47:53;;;;;;;4.30;1.63;;;26.30;99.90;;;;;;4955731;28;20047;-71
2023/07/11 14:50:21;;;;;;;5.40;2.08;;;26.50;99.90;;;;;;4954929;28;20039;-71
2023/07/11 14:52:47;;;;;;;5.15;1.85;;;26.30;99.90;;;;;;4972871;28;20094;-72
2023/07/11 14:55:17;;;;;;;5.97;1.92;;;26.30;99.90;;;;;;4955435;28;20491;-71
2023/07/11 14:57:47;;;;;;;5.07;1.92;;;26.40;99.90;;;;;;4955559;28;20061;-71
2023/07/11 15:00:23;;;;;;;4.88;1.58;;;26.10;99.90;;;;;;4955108;28;20129;-71